sensor_id;sensor_type;location;lat;lon;timestamp;P1;durP1;ratioP1;P2;durP2;ratioP2
21806;SDS011;11065;50.786;7.840;2023-04-03T00:01:11;1.60;;;1.07;;
21806;SDS011;11065;50.786;7.840;2023-04-03T00:03:41;1.80;;;1.00;;
21806;SDS011;11065;50.786;7.840;2023-04-03T00:06:10;2.07;;;1.20;;
21806;SDS011;11065;50.786;7.840;2023-04-03T00:08:38;2.57;;;1.17;;
21806;SDS011;11065;50.786;7.840;2023-04-03T00:11:07;2.43;;;1.10;;
21806;SDS011;11065;50.786;7.840;2023-04-03T00:13:36;1.77;;;0.93;;
21806;SDS011;11065;50.786;7.840;2023-04-03T00:16:05;1.83;;;1.10;;
21806;SDS011;11065;50.786;7.840;2023-04-03T00:18:34;1.83;;;1.00;;
21806;SDS011;11065;50.786;7.840;2023-04-03T00:21:04;2.50;;;1.23;;
21806;SDS011;11065;50.786;7.840;2023-04-03T00:23:33;0.97;;;0.80;;
21806;SDS011;11065;50.786;7.840;2023-04-03T00:26:02;2.10;;;1.10;;
21806;SDS011;11065;50.786;7.840;2023-04-03T00:28:30;2.40;;;1.10;;
21806;SDS011;11065;50.786;7.840;2023-04-03T00:30:58;2.10;;;1.10;;
21806;SDS011;11065;50.786;7.840;2023-04-03T00:33:27;2.10;;;1.17;;
21806;SDS011;11065;50.786;7.840;2023-04-03T00:35:55;1.73;;;1.03;;
21806;SDS011;11065;50.786;7.840;2023-04-03T00:38:25;4.20;;;1.30;;
21806;SDS011;11065;50.786;7.840;2023-04-03T00:40:53;2.60;;;1.40;;
21806;SDS011;11065;50.786;7.840;2023-04-03T00:43:22;2.67;;;1.70;;
21806;SDS011;11065;50.786;7.840;2023-04-03T00:45:53;2.13;;;1.70;;
21806;SDS011;11065;50.786;7.840;2023-04-03T00:48:23;3.43;;;1.37;;
21806;SDS011;11065;50.786;7.840;2023-04-03T00:50:53;3.80;;;1.70;;
21806;SDS011;11065;50.786;7.840;2023-04-03T00:53:23;2.63;;;1.23;;
21806;SDS011;11065;50.786;7.840;2023-04-03T00:55:57;2.43;;;1.20;;
21806;SDS011;11065;50.786;7.840;2023-04-03T00:58:28;2.33;;;1.30;;
21806;SDS011;11065;50.786;7.840;2023-04-03T01:01:03;2.43;;;1.20;;
21806;SDS011;11065;50.786;7.840;2023-04-03T01:03:35;2.70;;;1.47;;
21806;SDS011;11065;50.786;7.840;2023-04-03T01:06:04;2.10;;;1.00;;
21806;SDS011;11065;50.786;7.840;2023-04-03T01:08:34;1.90;;;1.00;;
21806;SDS011;11065;50.786;7.840;2023-04-03T01:11:03;2.23;;;1.07;;
21806;SDS011;11065;50.786;7.840;2023-04-03T01:13:32;2.00;;;1.10;;
21806;SDS011;11065;50.786;7.840;2023-04-03T01:16:02;2.43;;;1.20;;
21806;SDS011;11065;50.786;7.840;2023-04-03T01:18:32;3.07;;;1.27;;
21806;SDS011;11065;50.786;7.840;2023-04-03T01:27:04;2.70;;;1.20;;
21806;SDS011;11065;50.786;7.840;2023-04-03T01:29:34;2.97;;;1.10;;
21806;SDS011;11065;50.786;7.840;2023-04-03T01:32:04;2.03;;;1.10;;
21806;SDS011;11065;50.786;7.840;2023-04-03T01:34:33;3.60;;;1.20;;
21806;SDS011;11065;50.786;7.840;2023-04-03T01:37:01;2.20;;;1.10;;
21806;SDS011;11065;50.786;7.840;2023-04-03T01:39:29;3.53;;;1.10;;
21806;SDS011;11065;50.786;7.840;2023-04-03T01:41:58;2.07;;;1.03;;
21806;SDS011;11065;50.786;7.840;2023-04-03T01:44:30;2.50;;;1.17;;
21806;SDS011;11065;50.786;7.840;2023-04-03T01:46:59;2.07;;;1.30;;
21806;SDS011;11065;50.786;7.840;2023-04-03T01:49:30;3.07;;;1.37;;
21806;SDS011;11065;50.786;7.840;2023-04-03T01:51:58;3.03;;;1.17;;
21806;SDS011;11065;50.786;7.840;2023-04-03T01:54:26;2.10;;;1.20;;
21806;SDS011;11065;50.786;7.840;2023-04-03T01:56:54;2.57;;;1.30;;
21806;SDS011;11065;50.786;7.840;2023-04-03T01:59:22;2.90;;;1.30;;
21806;SDS011;11065;50.786;7.840;2023-04-03T02:01:51;2.43;;;1.40;;
21806;SDS011;11065;50.786;7.840;2023-04-03T02:04:19;3.70;;;1.50;;
21806;SDS011;11065;50.786;7.840;2023-04-03T02:06:49;3.40;;;1.20;;
21806;SDS011;11065;50.786;7.840;2023-04-03T02:09:17;2.13;;;1.07;;
21806;SDS011;11065;50.786;7.840;2023-04-03T02:11:45;3.83;;;0.90;;
21806;SDS011;11065;50.786;7.840;2023-04-03T02:14:13;2.50;;;1.10;;
21806;SDS011;11065;50.786;7.840;2023-04-03T02:16:41;2.37;;;1.40;;
21806;SDS011;11065;50.786;7.840;2023-04-03T02:19:09;2.93;;;1.20;;
21806;SDS011;11065;50.786;7.840;2023-04-03T02:21:37;2.20;;;1.20;;
21806;SDS011;11065;50.786;7.840;2023-04-03T02:24:07;2.43;;;1.20;;
21806;SDS011;11065;50.786;7.840;2023-04-03T02:26:35;3.73;;;1.30;;
21806;SDS011;11065;50.786;7.840;2023-04-03T02:29:03;1.63;;;1.03;;
21806;SDS011;11065;50.786;7.840;2023-04-03T02:31:34;3.17;;;1.00;;
21806;SDS011;11065;50.786;7.840;2023-04-03T02:34:03;3.17;;;1.20;;
21806;SDS011;11065;50.786;7.840;2023-04-03T02:36:33;2.27;;;1.10;;
21806;SDS011;11065;50.786;7.840;2023-04-03T02:39:04;3.33;;;1.40;;
21806;SDS011;11065;50.786;7.840;2023-04-03T02:41:35;2.60;;;1.00;;
21806;SDS011;11065;50.786;7.840;2023-04-03T02:44:10;3.20;;;1.10;;
21806;SDS011;11065;50.786;7.840;2023-04-03T02:46:38;2.33;;;1.07;;
21806;SDS011;11065;50.786;7.840;2023-04-03T02:49:06;3.60;;;1.17;;
21806;SDS011;11065;50.786;7.840;2023-04-03T02:51:35;2.80;;;1.20;;
21806;SDS011;11065;50.786;7.840;2023-04-03T02:54:03;2.97;;;1.03;;
21806;SDS011;11065;50.786;7.840;2023-04-03T02:56:35;1.87;;;0.93;;
21806;SDS011;11065;50.786;7.840;2023-04-03T02:59:03;2.63;;;1.27;;
21806;SDS011;11065;50.786;7.840;2023-04-03T03:01:34;1.80;;;1.00;;
21806;SDS011;11065;50.786;7.840;2023-04-03T03:04:03;2.40;;;1.23;;
21806;SDS011;11065;50.786;7.840;2023-04-03T03:06:30;2.50;;;1.10;;
21806;SDS011;11065;50.786;7.840;2023-04-03T03:08:58;2.07;;;1.07;;
21806;SDS011;11065;50.786;7.840;2023-04-03T03:11:26;2.43;;;1.07;;
21806;SDS011;11065;50.786;7.840;2023-04-03T03:13:56;3.40;;;1.90;;
21806;SDS011;11065;50.786;7.840;2023-04-03T03:16:24;3.07;;;1.17;;
21806;SDS011;11065;50.786;7.840;2023-04-03T03:18:53;1.80;;;0.93;;
21806;SDS011;11065;50.786;7.840;2023-04-03T03:21:23;2.40;;;1.17;;
21806;SDS011;11065;50.786;7.840;2023-04-03T03:23:52;2.33;;;1.00;;
21806;SDS011;11065;50.786;7.840;2023-04-03T03:26:21;1.67;;;0.90;;
21806;SDS011;11065;50.786;7.840;2023-04-03T03:28:49;1.90;;;0.97;;
21806;SDS011;11065;50.786;7.840;2023-04-03T03:31:18;3.33;;;1.07;;
21806;SDS011;11065;50.786;7.840;2023-04-03T03:33:46;1.83;;;1.07;;
21806;SDS011;11065;50.786;7.840;2023-04-03T03:36:15;3.30;;;1.20;;
21806;SDS011;11065;50.786;7.840;2023-04-03T03:38:43;3.47;;;0.90;;
21806;SDS011;11065;50.786;7.840;2023-04-03T03:41:11;1.37;;;0.90;;
21806;SDS011;11065;50.786;7.840;2023-04-03T03:43:41;3.83;;;1.13;;
21806;SDS011;11065;50.786;7.840;2023-04-03T03:46:12;2.57;;;1.20;;
21806;SDS011;11065;50.786;7.840;2023-04-03T03:48:41;2.20;;;1.00;;
21806;SDS011;11065;50.786;7.840;2023-04-03T03:51:10;2.07;;;1.03;;
21806;SDS011;11065;50.786;7.840;2023-04-03T03:53:38;3.67;;;1.40;;
21806;SDS011;11065;50.786;7.840;2023-04-03T03:56:11;2.57;;;1.00;;
21806;SDS011;11065;50.786;7.840;2023-04-03T03:58:40;3.20;;;0.93;;
21806;SDS011;11065;50.786;7.840;2023-04-03T04:01:09;3.53;;;1.30;;
21806;SDS011;11065;50.786;7.840;2023-04-03T04:03:46;2.07;;;1.00;;
21806;SDS011;11065;50.786;7.840;2023-04-03T04:06:18;2.80;;;1.17;;
21806;SDS011;11065;50.786;7.840;2023-04-03T04:08:47;2.93;;;1.10;;
21806;SDS011;11065;50.786;7.840;2023-04-03T04:11:16;2.07;;;0.73;;
21806;SDS011;11065;50.786;7.840;2023-04-03T04:13:46;1.10;;;0.70;;
21806;SDS011;11065;50.786;7.840;2023-04-03T04:16:16;2.70;;;1.00;;
21806;SDS011;11065;50.786;7.840;2023-04-03T04:18:46;2.17;;;0.90;;
21806;SDS011;11065;50.786;7.840;2023-04-03T04:21:14;1.10;;;0.80;;
21806;SDS011;11065;50.786;7.840;2023-04-03T04:23:44;2.27;;;1.00;;
21806;SDS011;11065;50.786;7.840;2023-04-03T04:26:13;2.57;;;1.07;;
21806;SDS011;11065;50.786;7.840;2023-04-03T04:28:41;3.10;;;0.93;;
21806;SDS011;11065;50.786;7.840;2023-04-03T04:31:09;1.97;;;1.07;;
21806;SDS011;11065;50.786;7.840;2023-04-03T04:33:38;3.07;;;1.17;;
21806;SDS011;11065;50.786;7.840;2023-04-03T04:36:10;2.10;;;1.00;;
21806;SDS011;11065;50.786;7.840;2023-04-03T04:38:38;2.80;;;0.90;;
21806;SDS011;11065;50.786;7.840;2023-04-03T04:41:06;2.17;;;0.80;;
21806;SDS011;11065;50.786;7.840;2023-04-03T04:43:35;2.13;;;0.73;;
21806;SDS011;11065;50.786;7.840;2023-04-03T04:46:04;2.33;;;0.80;;
21806;SDS011;11065;50.786;7.840;2023-04-03T04:48:38;3.93;;;0.90;;
21806;SDS011;11065;50.786;7.840;2023-04-03T04:51:07;2.27;;;1.07;;
21806;SDS011;11065;50.786;7.840;2023-04-03T04:53:38;1.97;;;0.80;;
21806;SDS011;11065;50.786;7.840;2023-04-03T04:56:08;1.87;;;0.77;;
21806;SDS011;11065;50.786;7.840;2023-04-03T04:58:38;1.33;;;0.83;;
21806;SDS011;11065;50.786;7.840;2023-04-03T05:01:07;1.03;;;0.60;;
21806;SDS011;11065;50.786;7.840;2023-04-03T05:03:46;1.90;;;0.80;;
21806;SDS011;11065;50.786;7.840;2023-04-03T05:06:16;1.67;;;0.70;;
21806;SDS011;11065;50.786;7.840;2023-04-03T05:08:46;1.47;;;0.83;;
21806;SDS011;11065;50.786;7.840;2023-04-03T05:11:14;1.63;;;0.73;;
21806;SDS011;11065;50.786;7.840;2023-04-03T05:13:45;2.03;;;0.83;;
21806;SDS011;11065;50.786;7.840;2023-04-03T05:16:32;1.60;;;0.80;;
21806;SDS011;11065;50.786;7.840;2023-04-03T05:19:00;2.13;;;0.97;;
21806;SDS011;11065;50.786;7.840;2023-04-03T05:21:29;1.70;;;0.70;;
21806;SDS011;11065;50.786;7.840;2023-04-03T05:24:05;2.47;;;1.10;;
21806;SDS011;11065;50.786;7.840;2023-04-03T05:26:38;2.27;;;0.90;;
21806;SDS011;11065;50.786;7.840;2023-04-03T05:29:07;1.43;;;0.70;;
21806;SDS011;11065;50.786;7.840;2023-04-03T05:31:36;2.07;;;0.93;;
21806;SDS011;11065;50.786;7.840;2023-04-03T05:34:07;2.30;;;0.97;;
21806;SDS011;11065;50.786;7.840;2023-04-03T05:36:37;2.00;;;0.93;;
21806;SDS011;11065;50.786;7.840;2023-04-03T05:39:08;3.23;;;1.00;;
21806;SDS011;11065;50.786;7.840;2023-04-03T05:41:41;1.20;;;0.80;;
21806;SDS011;11065;50.786;7.840;2023-04-03T05:44:09;3.50;;;0.90;;
21806;SDS011;11065;50.786;7.840;2023-04-03T05:46:37;1.93;;;0.90;;
21806;SDS011;11065;50.786;7.840;2023-04-03T05:49:08;1.97;;;1.03;;
21806;SDS011;11065;50.786;7.840;2023-04-03T05:51:37;3.00;;;1.07;;
21806;SDS011;11065;50.786;7.840;2023-04-03T05:54:17;2.73;;;0.97;;
21806;SDS011;11065;50.786;7.840;2023-04-03T05:56:51;3.13;;;1.40;;
21806;SDS011;11065;50.786;7.840;2023-04-03T05:59:21;3.00;;;1.40;;
21806;SDS011;11065;50.786;7.840;2023-04-03T06:01:52;3.97;;;1.50;;
21806;SDS011;11065;50.786;7.840;2023-04-03T06:04:20;2.90;;;1.63;;
21806;SDS011;11065;50.786;7.840;2023-04-03T06:06:49;4.00;;;2.03;;
21806;SDS011;11065;50.786;7.840;2023-04-03T06:09:21;4.13;;;2.40;;
21806;SDS011;11065;50.786;7.840;2023-04-03T06:11:51;3.93;;;2.13;;
21806;SDS011;11065;50.786;7.840;2023-04-03T06:14:21;2.83;;;2.00;;
21806;SDS011;11065;50.786;7.840;2023-04-03T06:16:49;4.27;;;2.27;;
21806;SDS011;11065;50.786;7.840;2023-04-03T06:19:17;3.70;;;1.80;;
21806;SDS011;11065;50.786;7.840;2023-04-03T06:21:49;3.13;;;1.83;;
21806;SDS011;11065;50.786;7.840;2023-04-03T06:24:17;3.40;;;1.83;;
21806;SDS011;11065;50.786;7.840;2023-04-03T06:26:48;2.80;;;1.80;;
21806;SDS011;11065;50.786;7.840;2023-04-03T06:29:17;4.20;;;1.70;;
21806;SDS011;11065;50.786;7.840;2023-04-03T06:31:46;4.83;;;1.80;;
21806;SDS011;11065;50.786;7.840;2023-04-03T06:34:14;3.27;;;1.40;;
21806;SDS011;11065;50.786;7.840;2023-04-03T06:36:43;3.13;;;1.53;;
21806;SDS011;11065;50.786;7.840;2023-04-03T06:39:12;3.40;;;1.40;;
21806;SDS011;11065;50.786;7.840;2023-04-03T06:41:43;5.00;;;1.40;;
21806;SDS011;11065;50.786;7.840;2023-04-03T06:44:11;2.83;;;1.37;;
21806;SDS011;11065;50.786;7.840;2023-04-03T06:46:42;4.80;;;1.37;;
21806;SDS011;11065;50.786;7.840;2023-04-03T06:49:11;2.47;;;1.43;;
21806;SDS011;11065;50.786;7.840;2023-04-03T06:51:39;3.40;;;1.70;;
21806;SDS011;11065;50.786;7.840;2023-04-03T06:54:07;2.97;;;1.40;;
21806;SDS011;11065;50.786;7.840;2023-04-03T06:56:35;2.97;;;1.50;;
21806;SDS011;11065;50.786;7.840;2023-04-03T06:59:05;2.20;;;1.30;;
21806;SDS011;11065;50.786;7.840;2023-04-03T07:01:33;3.97;;;1.40;;
21806;SDS011;11065;50.786;7.840;2023-04-03T07:04:01;2.77;;;1.07;;
21806;SDS011;11065;50.786;7.840;2023-04-03T07:06:29;1.90;;;1.00;;
21806;SDS011;11065;50.786;7.840;2023-04-03T07:08:59;3.07;;;1.10;;
21806;SDS011;11065;50.786;7.840;2023-04-03T07:11:28;3.20;;;1.10;;
21806;SDS011;11065;50.786;7.840;2023-04-03T07:13:56;3.07;;;1.30;;
21806;SDS011;11065;50.786;7.840;2023-04-03T07:16:26;1.70;;;0.83;;
21806;SDS011;11065;50.786;7.840;2023-04-03T07:18:54;3.00;;;1.10;;
21806;SDS011;11065;50.786;7.840;2023-04-03T07:21:22;3.90;;;1.13;;
21806;SDS011;11065;50.786;7.840;2023-04-03T07:23:50;3.60;;;1.17;;
21806;SDS011;11065;50.786;7.840;2023-04-03T07:26:19;3.30;;;1.10;;
21806;SDS011;11065;50.786;7.840;2023-04-03T07:28:48;1.93;;;1.10;;
21806;SDS011;11065;50.786;7.840;2023-04-03T07:31:17;2.83;;;0.93;;
21806;SDS011;11065;50.786;7.840;2023-04-03T07:33:46;3.27;;;1.10;;
21806;SDS011;11065;50.786;7.840;2023-04-03T07:36:15;1.97;;;0.73;;
21806;SDS011;11065;50.786;7.840;2023-04-03T07:38:45;3.80;;;1.40;;
21806;SDS011;11065;50.786;7.840;2023-04-03T07:41:13;3.90;;;1.07;;
21806;SDS011;11065;50.786;7.840;2023-04-03T07:43:44;2.87;;;0.70;;
21806;SDS011;11065;50.786;7.840;2023-04-03T07:46:13;2.23;;;0.90;;
21806;SDS011;11065;50.786;7.840;2023-04-03T07:48:41;3.20;;;0.97;;
21806;SDS011;11065;50.786;7.840;2023-04-03T07:51:10;2.00;;;0.80;;
21806;SDS011;11065;50.786;7.840;2023-04-03T07:53:39;2.27;;;0.93;;
21806;SDS011;11065;50.786;7.840;2023-04-03T07:56:07;4.33;;;1.47;;
21806;SDS011;11065;50.786;7.840;2023-04-03T07:58:35;5.70;;;1.37;;
21806;SDS011;11065;50.786;7.840;2023-04-03T08:01:04;3.07;;;0.83;;
21806;SDS011;11065;50.786;7.840;2023-04-03T08:03:32;1.87;;;0.80;;
21806;SDS011;11065;50.786;7.840;2023-04-03T08:06:01;2.63;;;0.90;;
21806;SDS011;11065;50.786;7.840;2023-04-03T08:08:36;1.37;;;0.60;;
21806;SDS011;11065;50.786;7.840;2023-04-03T08:11:04;3.27;;;1.00;;
21806;SDS011;11065;50.786;7.840;2023-04-03T08:13:33;3.00;;;1.03;;
21806;SDS011;11065;50.786;7.840;2023-04-03T08:16:08;2.73;;;1.00;;
21806;SDS011;11065;50.786;7.840;2023-04-03T08:18:38;4.73;;;1.10;;
21806;SDS011;11065;50.786;7.840;2023-04-03T08:21:06;2.33;;;1.10;;
21806;SDS011;11065;50.786;7.840;2023-04-03T08:23:36;2.57;;;1.00;;
21806;SDS011;11065;50.786;7.840;2023-04-03T08:26:06;3.17;;;1.00;;
21806;SDS011;11065;50.786;7.840;2023-04-03T08:28:35;2.97;;;1.00;;
21806;SDS011;11065;50.786;7.840;2023-04-03T08:31:03;2.60;;;1.00;;
21806;SDS011;11065;50.786;7.840;2023-04-03T08:33:33;2.37;;;1.40;;
21806;SDS011;11065;50.786;7.840;2023-04-03T08:36:03;1.60;;;0.80;;
21806;SDS011;11065;50.786;7.840;2023-04-03T08:38:31;3.87;;;1.00;;
21806;SDS011;11065;50.786;7.840;2023-04-03T08:41:07;1.93;;;0.90;;
21806;SDS011;11065;50.786;7.840;2023-04-03T08:43:45;5.27;;;1.07;;
21806;SDS011;11065;50.786;7.840;2023-04-03T08:46:26;2.47;;;0.90;;
21806;SDS011;11065;50.786;7.840;2023-04-03T08:49:07;3.20;;;1.10;;
21806;SDS011;11065;50.786;7.840;2023-04-03T08:51:42;2.90;;;1.07;;
21806;SDS011;11065;50.786;7.840;2023-04-03T08:54:20;3.10;;;1.10;;
21806;SDS011;11065;50.786;7.840;2023-04-03T08:56:59;3.27;;;0.90;;
21806;SDS011;11065;50.786;7.840;2023-04-03T08:59:32;2.37;;;0.80;;
21806;SDS011;11065;50.786;7.840;2023-04-03T09:02:03;3.90;;;1.00;;
21806;SDS011;11065;50.786;7.840;2023-04-03T09:04:50;3.27;;;1.00;;
21806;SDS011;11065;50.786;7.840;2023-04-03T09:07:20;2.13;;;0.90;;
21806;SDS011;11065;50.786;7.840;2023-04-03T09:09:52;2.70;;;0.80;;
21806;SDS011;11065;50.786;7.840;2023-04-03T09:12:24;5.00;;;0.70;;
21806;SDS011;11065;50.786;7.840;2023-04-03T09:14:57;1.93;;;0.90;;
21806;SDS011;11065;50.786;7.840;2023-04-03T09:17:34;1.13;;;0.63;;
21806;SDS011;11065;50.786;7.840;2023-04-03T09:20:11;1.40;;;0.60;;
21806;SDS011;11065;50.786;7.840;2023-04-03T09:22:46;2.08;;;0.68;;
21806;SDS011;11065;50.786;7.840;2023-04-03T09:25:20;4.95;;;0.77;;
21806;SDS011;11065;50.786;7.840;2023-04-03T09:27:51;1.75;;;0.90;;
21806;SDS011;11065;50.786;7.840;2023-04-03T09:30:20;2.17;;;0.70;;
21806;SDS011;11065;50.786;7.840;2023-04-03T09:32:50;3.30;;;0.90;;
21806;SDS011;11065;50.786;7.840;2023-04-03T09:35:21;1.95;;;0.80;;
21806;SDS011;11065;50.786;7.840;2023-04-03T09:38:19;2.15;;;0.60;;
21806;SDS011;11065;50.786;7.840;2023-04-03T09:40:49;1.67;;;0.65;;
21806;SDS011;11065;50.786;7.840;2023-04-03T09:43:21;2.05;;;0.63;;
21806;SDS011;11065;50.786;7.840;2023-04-03T09:45:53;2.17;;;0.70;;
21806;SDS011;11065;50.786;7.840;2023-04-03T09:48:23;2.40;;;1.13;;
21806;SDS011;11065;50.786;7.840;2023-04-03T09:50:59;2.10;;;0.70;;
21806;SDS011;11065;50.786;7.840;2023-04-03T09:53:30;2.17;;;0.70;;
21806;SDS011;11065;50.786;7.840;2023-04-03T09:56:03;2.63;;;0.90;;
21806;SDS011;11065;50.786;7.840;2023-04-03T09:58:39;0.77;;;0.50;;
21806;SDS011;11065;50.786;7.840;2023-04-03T10:01:23;1.92;;;0.70;;
21806;SDS011;11065;50.786;7.840;2023-04-03T10:04:05;2.35;;;0.75;;
21806;SDS011;11065;50.786;7.840;2023-04-03T10:06:36;2.05;;;0.60;;
21806;SDS011;11065;50.786;7.840;2023-04-03T10:09:15;2.00;;;0.60;;
21806;SDS011;11065;50.786;7.840;2023-04-03T10:11:59;1.80;;;0.80;;
21806;SDS011;11065;50.786;7.840;2023-04-03T10:14:32;1.30;;;0.50;;
21806;SDS011;11065;50.786;7.840;2023-04-03T10:17:04;1.70;;;0.65;;
21806;SDS011;11065;50.786;7.840;2023-04-03T10:19:40;1.83;;;0.68;;
21806;SDS011;11065;50.786;7.840;2023-04-03T10:22:13;2.22;;;0.70;;
21806;SDS011;11065;50.786;7.840;2023-04-03T10:24:48;1.55;;;0.60;;
21806;SDS011;11065;50.786;7.840;2023-04-03T10:27:24;2.28;;;0.60;;
21806;SDS011;11065;50.786;7.840;2023-04-03T10:30:02;1.48;;;0.70;;
21806;SDS011;11065;50.786;7.840;2023-04-03T10:32:44;0.82;;;0.52;;
21806;SDS011;11065;50.786;7.840;2023-04-03T10:35:18;1.50;;;0.57;;
21806;SDS011;11065;50.786;7.840;2023-04-03T10:37:58;1.60;;;0.50;;
21806;SDS011;11065;50.786;7.840;2023-04-03T10:40:33;1.77;;;0.60;;
21806;SDS011;11065;50.786;7.840;2023-04-03T10:43:08;2.58;;;0.50;;
21806;SDS011;11065;50.786;7.840;2023-04-03T10:45:48;1.45;;;0.60;;
21806;SDS011;11065;50.786;7.840;2023-04-03T10:48:24;1.70;;;0.68;;
21806;SDS011;11065;50.786;7.840;2023-04-03T10:51:04;1.45;;;0.50;;
21806;SDS011;11065;50.786;7.840;2023-04-03T10:53:39;1.58;;;0.73;;
21806;SDS011;11065;50.786;7.840;2023-04-03T10:56:13;1.30;;;0.50;;
21806;SDS011;11065;50.786;7.840;2023-04-03T10:58:48;2.28;;;0.80;;
21806;SDS011;11065;50.786;7.840;2023-04-03T11:01:22;1.55;;;0.70;;
21806;SDS011;11065;50.786;7.840;2023-04-03T11:03:56;1.85;;;0.80;;
21806;SDS011;11065;50.786;7.840;2023-04-03T11:06:28;1.27;;;0.50;;
21806;SDS011;11065;50.786;7.840;2023-04-03T11:09:05;2.00;;;0.80;;
21806;SDS011;11065;50.786;7.840;2023-04-03T11:11:43;1.77;;;0.75;;
21806;SDS011;11065;50.786;7.840;2023-04-03T11:14:15;1.27;;;0.60;;
21806;SDS011;11065;50.786;7.840;2023-04-03T11:16:52;1.83;;;0.68;;
21806;SDS011;11065;50.786;7.840;2023-04-03T11:19:28;1.90;;;0.93;;
21806;SDS011;11065;50.786;7.840;2023-04-03T11:22:08;1.25;;;0.60;;
21806;SDS011;11065;50.786;7.840;2023-04-03T11:24:41;1.65;;;0.70;;
21806;SDS011;11065;50.786;7.840;2023-04-03T11:27:11;1.50;;;0.60;;
21806;SDS011;11065;50.786;7.840;2023-04-03T11:29:49;1.45;;;0.70;;
21806;SDS011;11065;50.786;7.840;2023-04-03T11:35:25;2.38;;;0.70;;
21806;SDS011;11065;50.786;7.840;2023-04-03T11:37:54;1.67;;;0.65;;
21806;SDS011;11065;50.786;7.840;2023-04-03T11:40:25;1.58;;;0.75;;
21806;SDS011;11065;50.786;7.840;2023-04-03T11:43:02;1.60;;;0.68;;
21806;SDS011;11065;50.786;7.840;2023-04-03T11:45:36;1.48;;;0.65;;
21806;SDS011;11065;50.786;7.840;2023-04-03T12:03:29;1.20;;;0.60;;
21806;SDS011;11065;50.786;7.840;2023-04-03T12:09:58;2.10;;;0.70;;
21806;SDS011;11065;50.786;7.840;2023-04-03T12:12:29;1.20;;;0.65;;
21806;SDS011;11065;50.786;7.840;2023-04-03T12:15:17;1.42;;;0.50;;
21806;SDS011;11065;50.786;7.840;2023-04-03T12:21:08;1.60;;;0.70;;
21806;SDS011;11065;50.786;7.840;2023-04-03T12:23:37;1.40;;;0.65;;
21806;SDS011;11065;50.786;7.840;2023-04-03T12:26:32;1.98;;;0.82;;
21806;SDS011;11065;50.786;7.840;2023-04-03T12:29:15;1.92;;;0.57;;
21806;SDS011;11065;50.786;7.840;2023-04-03T12:31:52;2.85;;;0.70;;
21806;SDS011;11065;50.786;7.840;2023-04-03T12:34:40;3.38;;;0.90;;
21806;SDS011;11065;50.786;7.840;2023-04-03T12:37:20;1.63;;;0.75;;
21806;SDS011;11065;50.786;7.840;2023-04-03T12:40:07;1.90;;;0.90;;
21806;SDS011;11065;50.786;7.840;2023-04-03T12:42:53;2.28;;;0.93;;
21806;SDS011;11065;50.786;7.840;2023-04-03T12:45:41;2.78;;;0.77;;
21806;SDS011;11065;50.786;7.840;2023-04-03T12:48:13;1.98;;;0.57;;
21806;SDS011;11065;50.786;7.840;2023-04-03T12:50:43;2.42;;;0.70;;
21806;SDS011;11065;50.786;7.840;2023-04-03T12:53:14;2.55;;;0.90;;
21806;SDS011;11065;50.786;7.840;2023-04-03T12:55:46;1.35;;;0.60;;
21806;SDS011;11065;50.786;7.840;2023-04-03T12:58:16;1.52;;;0.70;;
21806;SDS011;11065;50.786;7.840;2023-04-03T13:00:58;2.47;;;0.77;;
21806;SDS011;11065;50.786;7.840;2023-04-03T13:03:28;2.13;;;0.70;;
21806;SDS011;11065;50.786;7.840;2023-04-03T13:05:58;2.38;;;0.88;;
21806;SDS011;11065;50.786;7.840;2023-04-03T13:08:28;3.72;;;0.90;;
21806;SDS011;11065;50.786;7.840;2023-04-03T13:10:58;1.42;;;0.75;;
21806;SDS011;11065;50.786;7.840;2023-04-03T13:13:30;2.20;;;0.70;;
21806;SDS011;11065;50.786;7.840;2023-04-03T13:15:58;2.30;;;0.93;;
21806;SDS011;11065;50.786;7.840;2023-04-03T13:18:28;3.13;;;0.80;;
21806;SDS011;11065;50.786;7.840;2023-04-03T13:20:59;1.73;;;0.65;;
21806;SDS011;11065;50.786;7.840;2023-04-03T13:23:31;1.88;;;0.75;;
21806;SDS011;11065;50.786;7.840;2023-04-03T13:26:02;2.47;;;0.77;;
21806;SDS011;11065;50.786;7.840;2023-04-03T13:28:33;1.70;;;0.88;;
21806;SDS011;11065;50.786;7.840;2023-04-03T13:31:04;1.70;;;0.68;;
21806;SDS011;11065;50.786;7.840;2023-04-03T13:33:36;2.17;;;0.88;;
21806;SDS011;11065;50.786;7.840;2023-04-03T13:36:06;2.63;;;1.08;;
21806;SDS011;11065;50.786;7.840;2023-04-03T13:38:38;2.70;;;0.93;;
21806;SDS011;11065;50.786;7.840;2023-04-03T13:41:21;1.48;;;0.73;;
21806;SDS011;11065;50.786;7.840;2023-04-03T13:43:53;1.98;;;0.80;;
21806;SDS011;11065;50.786;7.840;2023-04-03T13:46:36;1.73;;;0.70;;
21806;SDS011;11065;50.786;7.840;2023-04-03T13:49:16;2.40;;;0.70;;
21806;SDS011;11065;50.786;7.840;2023-04-03T13:51:46;3.42;;;0.70;;
21806;SDS011;11065;50.786;7.840;2023-04-03T13:54:31;1.42;;;0.60;;
21806;SDS011;11065;50.786;7.840;2023-04-03T13:57:02;1.65;;;0.70;;
21806;SDS011;11065;50.786;7.840;2023-04-03T13:59:40;1.30;;;0.50;;
21806;SDS011;11065;50.786;7.840;2023-04-03T14:02:14;3.03;;;0.88;;
21806;SDS011;11065;50.786;7.840;2023-04-03T14:04:46;1.50;;;0.50;;
21806;SDS011;11065;50.786;7.840;2023-04-03T14:07:19;2.58;;;0.65;;
21806;SDS011;11065;50.786;7.840;2023-04-03T14:09:47;1.30;;;0.70;;
21806;SDS011;11065;50.786;7.840;2023-04-03T14:12:17;1.92;;;0.60;;
21806;SDS011;11065;50.786;7.840;2023-04-03T14:14:59;2.33;;;0.80;;
21806;SDS011;11065;50.786;7.840;2023-04-03T14:17:28;2.33;;;1.00;;
21806;SDS011;11065;50.786;7.840;2023-04-03T14:19:57;1.97;;;0.90;;
21806;SDS011;11065;50.786;7.840;2023-04-03T14:22:27;2.10;;;0.70;;
21806;SDS011;11065;50.786;7.840;2023-04-03T14:24:58;1.73;;;0.80;;
21806;SDS011;11065;50.786;7.840;2023-04-03T14:27:27;1.10;;;0.50;;
21806;SDS011;11065;50.786;7.840;2023-04-03T14:29:59;2.53;;;0.80;;
21806;SDS011;11065;50.786;7.840;2023-04-03T14:32:29;2.10;;;0.90;;
21806;SDS011;11065;50.786;7.840;2023-04-03T14:34:57;0.93;;;0.50;;
21806;SDS011;11065;50.786;7.840;2023-04-03T14:37:27;2.37;;;0.80;;
21806;SDS011;11065;50.786;7.840;2023-04-03T14:39:58;3.03;;;0.80;;
21806;SDS011;11065;50.786;7.840;2023-04-03T14:42:28;2.73;;;0.80;;
21806;SDS011;11065;50.786;7.840;2023-04-03T14:45:00;2.20;;;0.70;;
21806;SDS011;11065;50.786;7.840;2023-04-03T14:47:30;2.03;;;0.70;;
21806;SDS011;11065;50.786;7.840;2023-04-03T14:49:59;1.67;;;0.70;;
21806;SDS011;11065;50.786;7.840;2023-04-03T14:52:30;2.37;;;0.80;;
21806;SDS011;11065;50.786;7.840;2023-04-03T14:54:59;3.47;;;0.80;;
21806;SDS011;11065;50.786;7.840;2023-04-03T14:57:28;1.20;;;0.60;;
21806;SDS011;11065;50.786;7.840;2023-04-03T14:59:57;1.77;;;0.80;;
21806;SDS011;11065;50.786;7.840;2023-04-03T15:02:29;1.87;;;0.60;;
21806;SDS011;11065;50.786;7.840;2023-04-03T15:04:59;1.37;;;0.63;;
21806;SDS011;11065;50.786;7.840;2023-04-03T15:07:29;2.17;;;0.60;;
21806;SDS011;11065;50.786;7.840;2023-04-03T15:10:01;1.37;;;0.60;;
21806;SDS011;11065;50.786;7.840;2023-04-03T15:12:31;1.90;;;0.80;;
21806;SDS011;11065;50.786;7.840;2023-04-03T15:14:59;1.13;;;0.50;;
21806;SDS011;11065;50.786;7.840;2023-04-03T15:17:30;1.77;;;0.60;;
21806;SDS011;11065;50.786;7.840;2023-04-03T15:19:58;2.50;;;0.70;;
21806;SDS011;11065;50.786;7.840;2023-04-03T15:22:26;1.80;;;0.73;;
21806;SDS011;11065;50.786;7.840;2023-04-03T15:24:55;1.70;;;0.70;;
21806;SDS011;11065;50.786;7.840;2023-04-03T15:27:23;2.23;;;0.80;;
21806;SDS011;11065;50.786;7.840;2023-04-03T15:29:51;1.10;;;0.60;;
21806;SDS011;11065;50.786;7.840;2023-04-03T15:32:19;1.47;;;0.70;;
21806;SDS011;11065;50.786;7.840;2023-04-03T15:34:49;1.70;;;0.60;;
21806;SDS011;11065;50.786;7.840;2023-04-03T15:37:22;1.77;;;0.67;;
21806;SDS011;11065;50.786;7.840;2023-04-03T15:39:50;1.63;;;0.70;;
21806;SDS011;11065;50.786;7.840;2023-04-03T15:42:18;1.63;;;0.70;;
21806;SDS011;11065;50.786;7.840;2023-04-03T15:44:46;2.13;;;0.70;;